createdAt,value
2022-10-22T00:00:45.176Z,12.54
2022-10-22T00:03:47.482Z,12.75
2022-10-22T00:06:49.808Z,12.68
2022-10-22T00:09:52.138Z,12.58
2022-10-22T00:12:54.359Z,12.59
2022-10-22T00:15:56.897Z,12.77
2022-10-22T00:18:59.250Z,12.71
2022-10-22T00:22:05.651Z,12.77
2022-10-22T00:25:08.385Z,12.78
2022-10-22T00:28:11.697Z,12.62
2022-10-22T00:31:15.762Z,12.71
2022-10-22T00:34:20.133Z,12.60
2022-10-22T00:37:22.418Z,12.66
2022-10-22T00:40:25.201Z,12.76
2022-10-22T00:43:27.609Z,12.71
2022-10-22T00:46:30.073Z,12.74
2022-10-22T00:49:32.762Z,12.75
2022-10-22T00:52:35.906Z,12.74
2022-10-22T00:55:39.283Z,12.76
2022-10-22T00:58:48.644Z,12.74
2022-10-22T01:01:52.962Z,12.73
2022-10-22T01:04:55.273Z,12.63
2022-10-22T01:07:57.763Z,12.62
2022-10-22T01:11:07.121Z,12.58
2022-10-22T01:14:34.209Z,12.67
2022-10-22T01:17:43.646Z,12.62
2022-10-22T01:21:44.954Z,12.76
2022-10-22T01:24:57.941Z,12.59
2022-10-22T01:28:16.718Z,12.75
2022-10-22T01:31:20.572Z,12.60
2022-10-22T01:34:23.382Z,12.59
2022-10-22T01:37:28.871Z,12.59
2022-10-22T01:40:31.203Z,12.51
2022-10-22T01:43:33.506Z,12.45
2022-10-22T01:46:36.684Z,12.61
2022-10-22T01:49:51.496Z,12.61
2022-10-22T01:53:15.745Z,12.63
2022-10-22T01:56:37.372Z,12.64
2022-10-22T02:00:00.295Z,12.60
2022-10-22T02:03:08.338Z,12.59
2022-10-22T02:06:15.024Z,12.55
2022-10-22T02:09:18.892Z,12.49
2022-10-22T02:12:21.781Z,12.40
2022-10-22T02:15:26.223Z,12.32
2022-10-22T02:18:30.508Z,12.27
2022-10-22T02:21:32.805Z,12.30
2022-10-22T02:24:35.071Z,12.30
2022-10-22T02:28:12.556Z,12.24
2022-10-22T02:31:19.826Z,12.18
2022-10-22T02:34:24.277Z,12.10
2022-10-22T02:37:27.045Z,12.10
2022-10-22T02:40:30.922Z,12.23
2022-10-22T02:43:43.082Z,12.21
2022-10-22T02:46:45.421Z,12.16
2022-10-22T02:49:47.717Z,11.97
2022-10-22T02:52:50.129Z,12.02
2022-10-22T02:55:52.394Z,12.03
2022-10-22T02:58:54.656Z,12.00
2022-10-22T03:01:57.034Z,11.88
2022-10-22T03:04:59.496Z,11.83
2022-10-22T03:08:01.775Z,11.84
2022-10-22T03:11:06.811Z,11.82
2022-10-22T03:14:09.279Z,11.84
2022-10-22T03:17:11.573Z,11.74
2022-10-22T03:20:13.987Z,11.58
2022-10-22T03:23:19.286Z,11.63
2022-10-22T03:26:21.877Z,11.43
2022-10-22T03:29:26.380Z,11.43
2022-10-22T03:32:28.684Z,11.48
2022-10-22T03:35:31.663Z,11.40
2022-10-22T03:38:36.027Z,11.37
2022-10-22T03:41:38.259Z,11.39
2022-10-22T03:44:40.591Z,11.39
2022-10-22T03:47:43.213Z,11.34
2022-10-22T03:50:45.541Z,11.34
2022-10-22T03:53:47.877Z,11.20
2022-10-22T03:56:50.123Z,11.26
2022-10-22T03:59:52.416Z,11.26
2022-10-22T04:02:54.686Z,11.27
2022-10-22T04:06:04.731Z,11.33
2022-10-22T04:09:07.089Z,11.30
2022-10-22T04:12:09.632Z,11.32
2022-10-22T04:15:11.904Z,11.30
2022-10-22T04:18:14.130Z,11.33
2022-10-22T04:21:18.301Z,11.38
2022-10-22T04:24:20.620Z,11.33
2022-10-22T04:27:22.984Z,11.40
2022-10-22T04:30:25.283Z,11.31
2022-10-22T04:33:27.558Z,11.26
2022-10-22T04:36:30.232Z,11.21
2022-10-22T04:39:32.473Z,11.19
2022-10-22T04:42:34.670Z,11.28
2022-10-22T04:45:37.055Z,11.11
2022-10-22T04:48:40.706Z,11.20
2022-10-22T04:51:42.919Z,11.14
2022-10-22T04:54:45.164Z,11.04
2022-10-22T04:57:47.462Z,11.11
2022-10-22T05:00:49.787Z,11.08
2022-10-22T05:03:53.596Z,11.00
2022-10-22T05:06:55.839Z,10.96
2022-10-22T05:09:58.323Z,10.95
2022-10-22T05:13:00.569Z,11.00
2022-10-22T05:16:02.883Z,10.99
2022-10-22T05:19:05.942Z,10.97
2022-10-22T05:22:08.223Z,11.05
2022-10-22T05:25:12.263Z,11.00
2022-10-22T05:28:14.522Z,11.00
2022-10-22T05:31:17.899Z,11.00
2022-10-22T05:34:20.289Z,10.97
2022-10-22T05:37:22.558Z,10.99
2022-10-22T05:40:31.250Z,11.20
2022-10-22T05:43:33.860Z,11.16
2022-10-22T05:46:36.752Z,11.09
2022-10-22T05:49:39.053Z,11.22
2022-10-22T05:52:41.603Z,11.29
2022-10-22T05:55:44.348Z,11.38
2022-10-22T05:58:46.753Z,11.37
2022-10-22T06:01:49.176Z,11.47
2022-10-22T06:04:51.439Z,11.43
2022-10-22T06:07:54.123Z,11.56
2022-10-22T06:10:56.834Z,11.53
2022-10-22T06:13:59.180Z,11.61
2022-10-22T06:17:01.470Z,11.62
2022-10-22T06:23:11.985Z,11.70
2022-10-22T06:26:14.232Z,11.69
2022-10-22T06:29:16.496Z,11.89
2022-10-22T06:32:18.834Z,12.05
2022-10-22T06:35:21.132Z,12.18
2022-10-22T06:38:23.498Z,12.25
2022-10-22T06:41:28.805Z,12.32
2022-10-22T06:44:31.856Z,12.43
2022-10-22T06:47:34.182Z,12.53
2022-10-22T06:50:36.556Z,12.73
2022-10-22T06:53:39.852Z,13.05
2022-10-22T06:56:42.314Z,13.24
2022-10-22T06:59:44.605Z,13.43
2022-10-22T07:02:56.371Z,13.47
2022-10-22T07:06:03.482Z,13.72
2022-10-22T07:09:05.980Z,13.75
2022-10-22T07:12:08.303Z,14.00
2022-10-22T07:15:11.212Z,14.09
2022-10-22T07:18:13.404Z,14.01
2022-10-22T07:21:18.127Z,14.07
2022-10-22T07:24:20.425Z,13.99
2022-10-22T07:27:22.676Z,13.96
2022-10-22T07:30:24.946Z,13.91
2022-10-22T07:33:27.514Z,13.96
2022-10-22T07:36:29.833Z,14.10
2022-10-22T07:39:32.114Z,14.18
2022-10-22T07:42:34.446Z,14.18
2022-10-22T07:45:36.887Z,14.49
2022-10-22T07:48:39.440Z,14.79
2022-10-22T07:51:41.696Z,15.06
2022-10-22T07:54:43.971Z,15.37
2022-10-22T07:57:46.337Z,15.61
2022-10-22T08:00:49.589Z,15.78
2022-10-22T08:03:51.891Z,15.92
2022-10-22T08:06:54.143Z,15.85
2022-10-22T08:09:56.544Z,16.02
2022-10-22T08:12:58.997Z,15.85
2022-10-22T08:16:01.606Z,15.87
2022-10-22T08:19:03.886Z,16.06
2022-10-22T08:22:06.168Z,16.35
2022-10-22T08:25:08.781Z,16.43
2022-10-22T08:28:11.334Z,16.48
2022-10-22T08:31:13.682Z,17.06
2022-10-22T08:34:16.288Z,17.17
2022-10-22T08:37:18.546Z,17.22
2022-10-22T08:40:40.358Z,17.16
2022-10-22T08:43:48.686Z,17.13
2022-10-22T08:47:45.473Z,17.08
2022-10-22T08:50:53.051Z,16.76
2022-10-22T08:54:32.989Z,16.72
2022-10-22T08:57:58.910Z,16.55
2022-10-22T09:01:17.738Z,16.53
2022-10-22T09:04:33.850Z,16.45
2022-10-22T09:07:36.063Z,16.45
2022-10-22T09:10:41.234Z,16.28
2022-10-22T09:13:45.322Z,16.23
2022-10-22T09:16:57.468Z,16.29
2022-10-22T09:20:26.395Z,16.25
2022-10-22T09:23:47.258Z,16.18
2022-10-22T09:26:49.505Z,16.11
2022-10-22T09:29:51.860Z,16.26
2022-10-22T09:33:06.452Z,16.35
2022-10-22T09:36:13.717Z,16.31
2022-10-22T09:39:28.477Z,16.36
2022-10-22T09:42:33.359Z,16.23
2022-10-22T09:45:35.665Z,16.28
2022-10-22T09:48:41.749Z,16.33
2022-10-22T09:52:00.754Z,16.39
2022-10-22T09:55:07.082Z,16.28
2022-10-22T09:58:12.265Z,16.36
2022-10-22T10:01:28.308Z,16.48
2022-10-22T10:04:35.326Z,16.52
2022-10-22T10:07:37.636Z,16.42
2022-10-22T10:10:53.066Z,16.45
2022-10-22T10:14:25.347Z,16.51
2022-10-22T10:17:33.665Z,16.58
2022-10-22T10:21:08.114Z,16.60
2022-10-22T10:24:28.917Z,16.73
2022-10-22T10:27:42.697Z,16.68
2022-10-22T10:31:00.147Z,16.71
2022-10-22T10:34:27.107Z,16.60
2022-10-22T10:41:12.259Z,16.66
2022-10-22T10:44:34.908Z,16.71
2022-10-22T10:48:14.837Z,16.75
2022-10-22T10:51:20.069Z,16.77
2022-10-22T10:54:57.527Z,16.75
2022-10-22T10:58:05.783Z,16.66
2022-10-22T11:01:20.197Z,16.68
2022-10-22T11:04:22.402Z,16.73
2022-10-22T11:07:45.465Z,16.67
2022-10-22T11:11:06.694Z,16.64
2022-10-22T11:14:18.680Z,16.65
2022-10-22T11:17:23.295Z,16.57
2022-10-22T11:20:54.019Z,16.68
2022-10-22T11:24:02.901Z,16.63
2022-10-22T11:27:12.035Z,16.58
2022-10-22T11:30:16.350Z,16.73
2022-10-22T11:33:22.679Z,16.71
2022-10-22T11:36:27.399Z,16.62
2022-10-22T11:39:44.507Z,16.74
2022-10-22T11:42:51.144Z,16.83
2022-10-22T11:46:02.389Z,16.92
2022-10-22T11:49:13.840Z,17.04
2022-10-22T11:52:26.777Z,17.05
2022-10-22T11:55:50.741Z,17.12
2022-10-22T11:58:55.062Z,17.09
2022-10-22T12:01:57.486Z,17.13
2022-10-22T12:05:18.597Z,17.21
2022-10-22T12:08:25.622Z,17.20
2022-10-22T12:11:48.218Z,17.20
2022-10-22T12:14:54.630Z,17.14
2022-10-22T12:18:00.635Z,17.14
2022-10-22T12:21:03.023Z,17.11
2022-10-22T12:24:06.651Z,17.21
2022-10-22T12:27:22.673Z,17.18
2022-10-22T12:30:35.032Z,17.04
2022-10-22T12:33:38.919Z,17.12
2022-10-22T12:36:41.365Z,17.20
2022-10-22T12:39:45.278Z,17.15
2022-10-22T12:42:52.973Z,16.93
2022-10-22T12:45:57.722Z,16.83
2022-10-22T12:49:01.118Z,16.79
2022-10-22T12:52:08.628Z,16.83
2022-10-22T12:55:18.232Z,16.90
2022-10-22T12:58:22.978Z,16.91
2022-10-22T13:01:27.834Z,16.60
2022-10-22T13:04:36.424Z,16.52
2022-10-22T13:07:39.800Z,16.65
2022-10-22T13:10:50.311Z,16.70
2022-10-22T13:14:03.916Z,16.56
2022-10-22T13:17:19.537Z,16.64
2022-10-22T13:20:23.881Z,16.56
2022-10-22T13:23:28.480Z,16.68
2022-10-22T13:26:33.861Z,16.69
2022-10-22T13:29:38.344Z,16.70
2022-10-22T13:32:41.777Z,16.56
2022-10-22T13:35:44.050Z,16.59
2022-10-22T13:38:46.943Z,16.66
2022-10-22T13:41:52.488Z,16.71
2022-10-22T13:44:54.765Z,16.63
2022-10-22T13:47:57.184Z,16.56
2022-10-22T13:50:59.504Z,16.51
2022-10-22T13:54:03.781Z,16.44
2022-10-22T13:57:09.813Z,16.53
2022-10-22T14:00:14.415Z,16.56
2022-10-22T14:03:20.695Z,16.53
2022-10-22T14:06:23.316Z,16.55
2022-10-22T14:09:25.922Z,16.42
2022-10-22T14:12:28.614Z,16.47
2022-10-22T14:15:30.890Z,16.53
2022-10-22T14:18:33.941Z,16.50
2022-10-22T14:21:37.799Z,16.42
2022-10-22T14:24:40.054Z,16.34
2022-10-22T14:27:42.704Z,16.31
2022-10-22T14:30:46.317Z,16.36
2022-10-22T14:33:50.192Z,16.39
2022-10-22T14:36:52.435Z,16.30
2022-10-22T14:40:01.761Z,16.28
2022-10-22T14:43:04.946Z,16.34
2022-10-22T14:46:07.357Z,16.21
2022-10-22T14:49:09.956Z,16.26
2022-10-22T14:52:14.828Z,16.20
2022-10-22T14:55:18.812Z,16.22
2022-10-22T14:58:21.239Z,16.10
2022-10-22T15:01:23.515Z,15.99
2022-10-22T15:04:27.304Z,15.95
2022-10-22T15:07:29.510Z,15.91
2022-10-22T15:10:31.784Z,15.96
2022-10-22T15:13:35.045Z,15.79
2022-10-22T15:16:37.354Z,15.83
2022-10-22T15:19:39.712Z,15.75
2022-10-22T15:22:42.356Z,15.75
2022-10-22T15:25:44.959Z,15.71
2022-10-22T15:28:47.242Z,15.74
2022-10-22T15:31:49.433Z,15.74
2022-10-22T15:34:53.970Z,15.62
2022-10-22T15:37:56.374Z,15.58
2022-10-22T15:41:05.366Z,15.71
2022-10-22T15:44:08.804Z,15.48
2022-10-22T15:47:11.219Z,15.58
2022-10-22T15:50:13.575Z,15.45
2022-10-22T15:53:15.848Z,15.50
2022-10-22T15:56:18.329Z,15.41
2022-10-22T15:59:20.704Z,15.45
2022-10-22T16:02:23.020Z,15.30
2022-10-22T16:05:27.226Z,15.19
2022-10-22T16:08:29.465Z,15.08
2022-10-22T16:11:32.195Z,15.00
2022-10-22T16:14:34.457Z,14.92
2022-10-22T16:17:36.818Z,14.82
2022-10-22T16:20:40.497Z,14.90
2022-10-22T16:23:43.147Z,14.89
2022-10-22T16:26:46.110Z,14.77
2022-10-22T16:29:48.370Z,14.80
2022-10-22T16:32:52.891Z,14.60
2022-10-22T16:35:55.190Z,14.60
2022-10-22T16:38:57.459Z,14.56
2022-10-22T16:41:59.728Z,14.53
2022-10-22T16:45:02.379Z,14.36
2022-10-22T16:48:04.861Z,14.36
2022-10-22T16:51:09.072Z,14.39
2022-10-22T16:54:12.625Z,14.15
2022-10-22T16:57:15.041Z,14.19
2022-10-22T17:00:17.668Z,14.21
2022-10-22T17:03:20.338Z,14.20
2022-10-22T17:06:24.519Z,14.37
2022-10-22T17:09:26.965Z,14.33
2022-10-22T17:12:35.167Z,14.34
2022-10-22T17:15:37.508Z,14.27
2022-10-22T17:18:41.760Z,14.19
2022-10-22T17:21:44.198Z,14.23
2022-10-22T17:24:46.419Z,14.27
2022-10-22T17:27:48.702Z,14.37
2022-10-22T17:30:50.995Z,14.40
2022-10-22T17:33:55.621Z,14.13
2022-10-22T17:37:00.231Z,14.14
2022-10-22T17:40:04.535Z,14.17
2022-10-22T17:43:06.753Z,14.19
2022-10-22T17:46:11.183Z,14.10
2022-10-22T17:49:17.790Z,14.22
2022-10-22T17:52:20.141Z,14.13
2022-10-22T17:55:22.365Z,14.05
2022-10-22T17:58:24.587Z,14.04
2022-10-22T18:01:31.724Z,14.08
2022-10-22T18:04:35.680Z,14.01
2022-10-22T18:07:37.950Z,14.03
2022-10-22T18:10:40.673Z,14.08
2022-10-22T18:13:43.008Z,14.05
2022-10-22T18:16:46.019Z,14.09
2022-10-22T18:19:49.443Z,13.97
2022-10-22T18:22:53.940Z,14.05
2022-10-22T18:25:56.266Z,14.08
2022-10-22T18:28:59.266Z,13.94
2022-10-22T18:32:01.599Z,13.90
2022-10-22T18:35:04.479Z,13.97
2022-10-22T18:38:07.938Z,14.00
2022-10-22T18:41:13.595Z,14.16
2022-10-22T18:44:16.110Z,14.06
2022-10-22T18:47:18.438Z,14.17
2022-10-22T18:50:20.699Z,13.73
2022-10-22T18:53:23.077Z,13.63
2022-10-22T18:56:25.487Z,13.43
2022-10-22T18:59:27.858Z,13.78
2022-10-22T19:02:30.114Z,13.75
2022-10-22T19:05:32.411Z,13.73
2022-10-22T19:08:35.585Z,13.88
2022-10-22T19:11:37.957Z,13.99
2022-10-22T19:14:40.561Z,13.92
2022-10-22T19:17:43.163Z,13.74
2022-10-22T19:20:47.291Z,13.83
2022-10-22T19:23:49.689Z,13.85
2022-10-22T19:26:52.039Z,13.80
2022-10-22T19:29:54.306Z,13.81
2022-10-22T19:32:59.381Z,13.73
2022-10-22T19:36:20.274Z,13.72
2022-10-22T19:39:22.612Z,13.57
2022-10-22T19:42:24.920Z,13.53
2022-10-22T19:45:27.265Z,13.49
2022-10-22T19:48:29.957Z,13.48
2022-10-22T19:51:33.965Z,13.56
2022-10-22T19:54:40.791Z,13.42
2022-10-22T19:57:43.426Z,13.26
2022-10-22T20:00:46.226Z,13.18
2022-10-22T20:03:48.750Z,13.16
2022-10-22T20:06:51.439Z,13.12
2022-10-22T20:09:53.865Z,13.31
2022-10-22T20:12:56.133Z,13.26
2022-10-22T20:15:59.155Z,13.39
2022-10-22T20:19:04.159Z,13.45
2022-10-22T20:22:06.476Z,13.41
2022-10-22T20:25:12.745Z,13.41
2022-10-22T20:28:15.042Z,13.32
2022-10-22T20:31:19.887Z,13.28
2022-10-22T20:34:22.288Z,13.33
2022-10-22T20:37:24.565Z,13.30
2022-10-22T20:40:26.877Z,13.18
2022-10-22T20:43:29.325Z,13.11
2022-10-22T20:46:32.604Z,13.04
2022-10-22T20:49:35.642Z,13.00
2022-10-22T20:52:38.072Z,12.97
2022-10-22T20:55:40.326Z,12.93
2022-10-22T20:58:47.975Z,12.92
2022-10-22T21:01:52.444Z,12.89
2022-10-22T21:04:54.724Z,12.85
2022-10-22T21:07:58.530Z,12.66
2022-10-22T21:11:00.801Z,12.90
2022-10-22T21:14:03.543Z,12.96
2022-10-22T21:17:07.785Z,12.76
2022-10-22T21:23:13.513Z,12.78
2022-10-22T21:26:16.767Z,12.74
2022-10-22T21:29:20.336Z,12.70
2022-10-22T21:32:22.667Z,12.65
2022-10-22T21:35:25.097Z,12.72
2022-10-22T21:38:27.397Z,12.70
2022-10-22T21:41:29.687Z,12.72
2022-10-22T21:44:31.949Z,12.69
2022-10-22T21:47:34.328Z,12.63
2022-10-22T21:50:41.190Z,12.63
2022-10-22T21:53:44.253Z,12.59
2022-10-22T21:56:46.573Z,12.58
2022-10-22T21:59:48.847Z,12.54
2022-10-22T22:02:51.068Z,12.51
2022-10-22T22:06:04.322Z,12.61
2022-10-22T22:09:06.797Z,12.63
2022-10-22T22:12:09.523Z,12.60
2022-10-22T22:15:11.825Z,12.45
2022-10-22T22:18:14.084Z,12.55
2022-10-22T22:21:18.200Z,12.57
2022-10-22T22:24:20.493Z,12.60
2022-10-22T22:27:22.847Z,12.63
2022-10-22T22:30:25.189Z,12.59
2022-10-22T22:33:27.764Z,12.54
2022-10-22T22:36:37.126Z,12.57
2022-10-22T22:39:39.330Z,12.48
2022-10-22T22:42:41.607Z,12.35
2022-10-22T22:45:43.858Z,12.32
2022-10-22T22:48:49.172Z,12.35
2022-10-22T22:51:51.438Z,12.30
2022-10-22T22:54:53.693Z,12.31
2022-10-22T22:57:55.962Z,12.35
2022-10-22T23:01:14.792Z,12.33
2022-10-22T23:04:22.661Z,12.34
2022-10-22T23:07:24.925Z,12.33
2022-10-22T23:10:27.181Z,12.30
2022-10-22T23:13:29.589Z,12.23
2022-10-22T23:16:34.103Z,12.18
2022-10-22T23:19:36.373Z,12.12
2022-10-22T23:22:38.807Z,12.02
2022-10-22T23:25:41.148Z,12.06
2022-10-22T23:28:43.584Z,12.03
2022-10-22T23:31:46.662Z,12.04
2022-10-22T23:34:48.987Z,11.89
2022-10-22T23:37:51.248Z,11.93
2022-10-22T23:40:57.381Z,11.95
2022-10-22T23:43:59.911Z,11.89
2022-10-22T23:47:02.201Z,11.85
2022-10-22T23:50:04.649Z,11.85
2022-10-22T23:53:07.272Z,11.83
2022-10-22T23:56:12.881Z,11.88
2022-10-22T23:59:15.536Z,11.90
